sensor_id;sensor_type;location;lat;lon;timestamp;P1;durP1;ratioP1;P2;durP2;ratioP2
59872;SDS011;50750;51.636;4.948;2023-11-19T00:00:36;2.50;;;1.40;;
59872;SDS011;50750;51.636;4.948;2023-11-19T00:03:23;2.60;;;1.20;;
59872;SDS011;50750;51.636;4.948;2023-11-19T00:05:50;2.40;;;1.20;;
59872;SDS011;50750;51.636;4.948;2023-11-19T00:08:16;2.60;;;1.40;;
59872;SDS011;50750;51.636;4.948;2023-11-19T00:10:43;2.80;;;1.30;;
59872;SDS011;50750;51.636;4.948;2023-11-19T00:13:09;2.40;;;1.30;;
59872;SDS011;50750;51.636;4.948;2023-11-19T00:15:36;3.90;;;1.40;;
59872;SDS011;50750;51.636;4.948;2023-11-19T00:18:03;3.40;;;1.50;;
59872;SDS011;50750;51.636;4.948;2023-11-19T00:20:30;4.50;;;1.40;;
59872;SDS011;50750;51.636;4.948;2023-11-19T00:22:57;3.00;;;1.60;;
59872;SDS011;50750;51.636;4.948;2023-11-19T00:25:23;3.10;;;1.40;;
59872;SDS011;50750;51.636;4.948;2023-11-19T00:27:50;3.10;;;1.20;;
59872;SDS011;50750;51.636;4.948;2023-11-19T00:30:19;4.10;;;1.50;;
59872;SDS011;50750;51.636;4.948;2023-11-19T00:32:46;3.10;;;1.40;;
59872;SDS011;50750;51.636;4.948;2023-11-19T00:35:12;3.30;;;1.60;;
59872;SDS011;50750;51.636;4.948;2023-11-19T00:37:42;3.60;;;1.40;;
59872;SDS011;50750;51.636;4.948;2023-11-19T00:40:15;4.10;;;1.50;;
59872;SDS011;50750;51.636;4.948;2023-11-19T00:42:43;4.20;;;1.30;;
59872;SDS011;50750;51.636;4.948;2023-11-19T00:45:10;3.40;;;1.60;;
59872;SDS011;50750;51.636;4.948;2023-11-19T00:47:38;4.50;;;1.60;;
59872;SDS011;50750;51.636;4.948;2023-11-19T00:50:05;2.60;;;1.30;;
59872;SDS011;50750;51.636;4.948;2023-11-19T00:52:32;3.70;;;1.20;;
59872;SDS011;50750;51.636;4.948;2023-11-19T00:54:58;3.70;;;1.60;;
59872;SDS011;50750;51.636;4.948;2023-11-19T00:57:25;4.60;;;1.60;;
59872;SDS011;50750;51.636;4.948;2023-11-19T00:59:52;4.40;;;1.80;;
59872;SDS011;50750;51.636;4.948;2023-11-19T01:02:19;5.10;;;1.40;;
59872;SDS011;50750;51.636;4.948;2023-11-19T01:04:46;3.60;;;1.30;;
59872;SDS011;50750;51.636;4.948;2023-11-19T01:07:12;3.40;;;1.10;;
59872;SDS011;50750;51.636;4.948;2023-11-19T01:09:41;5.50;;;1.70;;
59872;SDS011;50750;51.636;4.948;2023-11-19T01:12:08;3.40;;;1.40;;
59872;SDS011;50750;51.636;4.948;2023-11-19T01:14:37;5.20;;;1.40;;
59872;SDS011;50750;51.636;4.948;2023-11-19T01:17:03;3.00;;;1.40;;
59872;SDS011;50750;51.636;4.948;2023-11-19T01:19:31;4.10;;;1.50;;
59872;SDS011;50750;51.636;4.948;2023-11-19T01:21:57;3.60;;;1.20;;
59872;SDS011;50750;51.636;4.948;2023-11-19T01:24:23;4.30;;;1.40;;
59872;SDS011;50750;51.636;4.948;2023-11-19T01:26:50;3.30;;;1.30;;
59872;SDS011;50750;51.636;4.948;2023-11-19T01:29:16;6.10;;;1.40;;
59872;SDS011;50750;51.636;4.948;2023-11-19T01:31:43;4.50;;;1.30;;
59872;SDS011;50750;51.636;4.948;2023-11-19T01:34:11;3.40;;;1.20;;
59872;SDS011;50750;51.636;4.948;2023-11-19T01:36:38;3.30;;;1.20;;
59872;SDS011;50750;51.636;4.948;2023-11-19T01:39:05;6.90;;;1.60;;
59872;SDS011;50750;51.636;4.948;2023-11-19T01:41:35;4.80;;;1.30;;
59872;SDS011;50750;51.636;4.948;2023-11-19T01:44:02;4.40;;;1.40;;
59872;SDS011;50750;51.636;4.948;2023-11-19T01:46:29;4.80;;;1.50;;
59872;SDS011;50750;51.636;4.948;2023-11-19T01:48:59;5.00;;;1.20;;
59872;SDS011;50750;51.636;4.948;2023-11-19T01:51:26;3.30;;;1.10;;
59872;SDS011;50750;51.636;4.948;2023-11-19T01:53:53;5.50;;;1.30;;
59872;SDS011;50750;51.636;4.948;2023-11-19T01:56:20;4.20;;;1.50;;
59872;SDS011;50750;51.636;4.948;2023-11-19T01:58:47;6.10;;;1.60;;
59872;SDS011;50750;51.636;4.948;2023-11-19T02:01:16;5.50;;;1.60;;
59872;SDS011;50750;51.636;4.948;2023-11-19T02:03:42;5.90;;;1.60;;
59872;SDS011;50750;51.636;4.948;2023-11-19T02:06:09;5.40;;;1.60;;
59872;SDS011;50750;51.636;4.948;2023-11-19T02:08:36;4.60;;;1.60;;
59872;SDS011;50750;51.636;4.948;2023-11-19T02:11:05;7.00;;;2.20;;
59872;SDS011;50750;51.636;4.948;2023-11-19T02:13:33;4.40;;;1.40;;
59872;SDS011;50750;51.636;4.948;2023-11-19T02:16:02;6.30;;;1.60;;
59872;SDS011;50750;51.636;4.948;2023-11-19T02:18:29;5.20;;;1.60;;
59872;SDS011;50750;51.636;4.948;2023-11-19T02:20:57;5.00;;;1.50;;
59872;SDS011;50750;51.636;4.948;2023-11-19T02:23:25;5.90;;;1.80;;
59872;SDS011;50750;51.636;4.948;2023-11-19T02:26:06;3.90;;;1.30;;
59872;SDS011;50750;51.636;4.948;2023-11-19T02:28:35;4.50;;;1.30;;
59872;SDS011;50750;51.636;4.948;2023-11-19T02:31:03;7.50;;;1.80;;
59872;SDS011;50750;51.636;4.948;2023-11-19T02:33:31;5.90;;;1.60;;
59872;SDS011;50750;51.636;4.948;2023-11-19T02:35:57;5.60;;;1.60;;
59872;SDS011;50750;51.636;4.948;2023-11-19T02:38:24;6.80;;;2.00;;
59872;SDS011;50750;51.636;4.948;2023-11-19T02:40:50;5.70;;;1.60;;
59872;SDS011;50750;51.636;4.948;2023-11-19T02:43:17;6.10;;;1.70;;
59872;SDS011;50750;51.636;4.948;2023-11-19T02:45:44;4.60;;;1.50;;
59872;SDS011;50750;51.636;4.948;2023-11-19T02:48:11;5.10;;;1.70;;
59872;SDS011;50750;51.636;4.948;2023-11-19T02:50:38;7.80;;;1.90;;
59872;SDS011;50750;51.636;4.948;2023-11-19T02:53:04;5.40;;;1.60;;
59872;SDS011;50750;51.636;4.948;2023-11-19T02:55:32;7.20;;;1.60;;
59872;SDS011;50750;51.636;4.948;2023-11-19T02:58:04;8.60;;;2.10;;
59872;SDS011;50750;51.636;4.948;2023-11-19T03:00:39;7.70;;;1.60;;
59872;SDS011;50750;51.636;4.948;2023-11-19T03:03:13;6.60;;;1.80;;
59872;SDS011;50750;51.636;4.948;2023-11-19T03:05:48;6.50;;;1.60;;
59872;SDS011;50750;51.636;4.948;2023-11-19T03:08:15;5.80;;;1.60;;
59872;SDS011;50750;51.636;4.948;2023-11-19T03:10:42;6.90;;;1.60;;
59872;SDS011;50750;51.636;4.948;2023-11-19T03:13:10;4.70;;;1.70;;
59872;SDS011;50750;51.636;4.948;2023-11-19T03:15:41;6.60;;;1.80;;
59872;SDS011;50750;51.636;4.948;2023-11-19T03:18:08;11.60;;;2.40;;
59872;SDS011;50750;51.636;4.948;2023-11-19T03:20:34;7.10;;;1.70;;
59872;SDS011;50750;51.636;4.948;2023-11-19T03:23:01;9.60;;;1.90;;
59872;SDS011;50750;51.636;4.948;2023-11-19T03:25:28;6.60;;;1.80;;
59872;SDS011;50750;51.636;4.948;2023-11-19T03:28:00;7.30;;;1.80;;
59872;SDS011;50750;51.636;4.948;2023-11-19T03:30:28;8.00;;;1.90;;
59872;SDS011;50750;51.636;4.948;2023-11-19T03:32:55;7.50;;;1.80;;
59872;SDS011;50750;51.636;4.948;2023-11-19T03:35:23;7.00;;;1.80;;
59872;SDS011;50750;51.636;4.948;2023-11-19T03:37:50;7.20;;;1.80;;
59872;SDS011;50750;51.636;4.948;2023-11-19T03:40:18;5.20;;;1.80;;
59872;SDS011;50750;51.636;4.948;2023-11-19T03:42:45;8.20;;;1.90;;
59872;SDS011;50750;51.636;4.948;2023-11-19T03:45:12;8.70;;;2.00;;
59872;SDS011;50750;51.636;4.948;2023-11-19T03:47:39;9.50;;;2.40;;
59872;SDS011;50750;51.636;4.948;2023-11-19T03:50:06;7.40;;;1.90;;
59872;SDS011;50750;51.636;4.948;2023-11-19T03:52:34;8.80;;;2.10;;
59872;SDS011;50750;51.636;4.948;2023-11-19T03:55:01;8.40;;;1.90;;
59872;SDS011;50750;51.636;4.948;2023-11-19T03:57:30;10.50;;;2.50;;
59872;SDS011;50750;51.636;4.948;2023-11-19T03:59:56;7.40;;;2.10;;
59872;SDS011;50750;51.636;4.948;2023-11-19T04:02:24;9.30;;;2.20;;
59872;SDS011;50750;51.636;4.948;2023-11-19T04:04:55;7.70;;;1.80;;
59872;SDS011;50750;51.636;4.948;2023-11-19T04:07:21;9.40;;;2.20;;
59872;SDS011;50750;51.636;4.948;2023-11-19T04:09:48;6.60;;;2.00;;
59872;SDS011;50750;51.636;4.948;2023-11-19T04:12:20;8.40;;;2.30;;
59872;SDS011;50750;51.636;4.948;2023-11-19T04:14:48;10.20;;;2.10;;
59872;SDS011;50750;51.636;4.948;2023-11-19T04:17:14;10.50;;;2.10;;
59872;SDS011;50750;51.636;4.948;2023-11-19T04:19:41;10.70;;;2.40;;
59872;SDS011;50750;51.636;4.948;2023-11-19T04:22:07;10.40;;;2.00;;
59872;SDS011;50750;51.636;4.948;2023-11-19T04:24:35;12.20;;;2.60;;
59872;SDS011;50750;51.636;4.948;2023-11-19T04:27:02;10.20;;;2.30;;
59872;SDS011;50750;51.636;4.948;2023-11-19T04:29:29;10.20;;;2.60;;
59872;SDS011;50750;51.636;4.948;2023-11-19T04:31:56;8.50;;;2.30;;
59872;SDS011;50750;51.636;4.948;2023-11-19T04:34:23;9.80;;;2.40;;
59872;SDS011;50750;51.636;4.948;2023-11-19T04:36:50;11.60;;;2.40;;
59872;SDS011;50750;51.636;4.948;2023-11-19T04:39:16;10.90;;;2.60;;
59872;SDS011;50750;51.636;4.948;2023-11-19T04:41:50;10.00;;;2.60;;
59872;SDS011;50750;51.636;4.948;2023-11-19T04:44:20;10.50;;;2.40;;
59872;SDS011;50750;51.636;4.948;2023-11-19T04:46:47;9.70;;;2.40;;
59872;SDS011;50750;51.636;4.948;2023-11-19T04:49:14;12.20;;;2.50;;
59872;SDS011;50750;51.636;4.948;2023-11-19T04:51:41;8.70;;;2.20;;
59872;SDS011;50750;51.636;4.948;2023-11-19T04:54:11;10.50;;;2.20;;
59872;SDS011;50750;51.636;4.948;2023-11-19T04:56:38;8.70;;;2.20;;
59872;SDS011;50750;51.636;4.948;2023-11-19T04:59:06;8.90;;;2.10;;
59872;SDS011;50750;51.636;4.948;2023-11-19T05:01:32;10.50;;;2.60;;
59872;SDS011;50750;51.636;4.948;2023-11-19T05:03:59;11.40;;;2.50;;
59872;SDS011;50750;51.636;4.948;2023-11-19T05:06:29;8.30;;;2.10;;
59872;SDS011;50750;51.636;4.948;2023-11-19T05:08:58;9.70;;;1.90;;
59872;SDS011;50750;51.636;4.948;2023-11-19T05:11:34;12.60;;;2.30;;
59872;SDS011;50750;51.636;4.948;2023-11-19T05:14:02;8.20;;;2.10;;
59872;SDS011;50750;51.636;4.948;2023-11-19T05:16:32;11.30;;;2.30;;
59872;SDS011;50750;51.636;4.948;2023-11-19T05:18:58;12.00;;;3.00;;
59872;SDS011;50750;51.636;4.948;2023-11-19T05:21:25;7.00;;;2.10;;
59872;SDS011;50750;51.636;4.948;2023-11-19T05:23:51;8.50;;;2.10;;
59872;SDS011;50750;51.636;4.948;2023-11-19T05:26:21;6.40;;;2.10;;
59872;SDS011;50750;51.636;4.948;2023-11-19T05:28:49;9.30;;;2.70;;
59872;SDS011;50750;51.636;4.948;2023-11-19T05:31:17;10.70;;;2.40;;
59872;SDS011;50750;51.636;4.948;2023-11-19T05:33:44;11.50;;;2.60;;
59872;SDS011;50750;51.636;4.948;2023-11-19T05:36:11;10.50;;;2.10;;
59872;SDS011;50750;51.636;4.948;2023-11-19T05:38:39;9.70;;;2.50;;
59872;SDS011;50750;51.636;4.948;2023-11-19T05:41:05;11.50;;;2.30;;
59872;SDS011;50750;51.636;4.948;2023-11-19T05:43:32;10.00;;;2.40;;
59872;SDS011;50750;51.636;4.948;2023-11-19T05:45:58;11.40;;;2.50;;
59872;SDS011;50750;51.636;4.948;2023-11-19T05:48:25;8.80;;;2.40;;
59872;SDS011;50750;51.636;4.948;2023-11-19T05:50:53;7.60;;;2.20;;
59872;SDS011;50750;51.636;4.948;2023-11-19T05:53:19;9.70;;;2.50;;
59872;SDS011;50750;51.636;4.948;2023-11-19T05:55:46;8.50;;;2.30;;
59872;SDS011;50750;51.636;4.948;2023-11-19T05:58:22;9.80;;;2.20;;
59872;SDS011;50750;51.636;4.948;2023-11-19T06:00:53;8.60;;;1.90;;
59872;SDS011;50750;51.636;4.948;2023-11-19T06:03:19;11.00;;;2.60;;
59872;SDS011;50750;51.636;4.948;2023-11-19T06:05:47;10.90;;;2.70;;
59872;SDS011;50750;51.636;4.948;2023-11-19T06:08:18;12.40;;;2.30;;
59872;SDS011;50750;51.636;4.948;2023-11-19T06:10:46;8.80;;;2.30;;
59872;SDS011;50750;51.636;4.948;2023-11-19T06:13:13;12.40;;;2.60;;
59872;SDS011;50750;51.636;4.948;2023-11-19T06:15:42;8.60;;;2.40;;
59872;SDS011;50750;51.636;4.948;2023-11-19T06:18:09;7.50;;;1.80;;
59872;SDS011;50750;51.636;4.948;2023-11-19T06:20:37;7.50;;;2.00;;
59872;SDS011;50750;51.636;4.948;2023-11-19T06:23:04;8.00;;;2.10;;
59872;SDS011;50750;51.636;4.948;2023-11-19T06:25:31;11.40;;;2.40;;
59872;SDS011;50750;51.636;4.948;2023-11-19T06:27:57;10.60;;;2.10;;
59872;SDS011;50750;51.636;4.948;2023-11-19T06:30:24;8.20;;;2.30;;
59872;SDS011;50750;51.636;4.948;2023-11-19T06:32:51;9.40;;;2.30;;
59872;SDS011;50750;51.636;4.948;2023-11-19T06:35:17;11.50;;;2.20;;
59872;SDS011;50750;51.636;4.948;2023-11-19T06:37:44;13.50;;;2.60;;
59872;SDS011;50750;51.636;4.948;2023-11-19T06:40:10;10.40;;;2.20;;
59872;SDS011;50750;51.636;4.948;2023-11-19T06:42:38;10.30;;;2.40;;
59872;SDS011;50750;51.636;4.948;2023-11-19T06:45:06;8.60;;;2.20;;
59872;SDS011;50750;51.636;4.948;2023-11-19T06:47:33;8.40;;;2.10;;
59872;SDS011;50750;51.636;4.948;2023-11-19T06:49:59;8.90;;;2.40;;
59872;SDS011;50750;51.636;4.948;2023-11-19T06:52:26;9.60;;;2.20;;
59872;SDS011;50750;51.636;4.948;2023-11-19T06:54:52;11.00;;;2.50;;
59872;SDS011;50750;51.636;4.948;2023-11-19T06:57:19;9.90;;;2.60;;
59872;SDS011;50750;51.636;4.948;2023-11-19T06:59:46;8.20;;;2.30;;
59872;SDS011;50750;51.636;4.948;2023-11-19T07:02:13;10.20;;;2.20;;
59872;SDS011;50750;51.636;4.948;2023-11-19T07:04:40;10.90;;;2.80;;
59872;SDS011;50750;51.636;4.948;2023-11-19T07:07:07;9.60;;;2.40;;
59872;SDS011;50750;51.636;4.948;2023-11-19T07:09:33;9.80;;;2.30;;
59872;SDS011;50750;51.636;4.948;2023-11-19T07:12:00;8.80;;;2.40;;
59872;SDS011;50750;51.636;4.948;2023-11-19T07:14:27;7.40;;;1.90;;
59872;SDS011;50750;51.636;4.948;2023-11-19T07:16:54;6.80;;;1.80;;
59872;SDS011;50750;51.636;4.948;2023-11-19T07:19:21;13.10;;;2.50;;
59872;SDS011;50750;51.636;4.948;2023-11-19T07:21:48;11.10;;;2.50;;
59872;SDS011;50750;51.636;4.948;2023-11-19T07:24:15;9.90;;;2.70;;
59872;SDS011;50750;51.636;4.948;2023-11-19T07:26:43;10.70;;;2.60;;
59872;SDS011;50750;51.636;4.948;2023-11-19T07:29:10;9.00;;;2.40;;
59872;SDS011;50750;51.636;4.948;2023-11-19T07:31:37;12.00;;;2.70;;
59872;SDS011;50750;51.636;4.948;2023-11-19T07:34:03;10.40;;;2.60;;
59872;SDS011;50750;51.636;4.948;2023-11-19T07:36:31;7.80;;;2.10;;
59872;SDS011;50750;51.636;4.948;2023-11-19T07:38:58;8.10;;;1.80;;
59872;SDS011;50750;51.636;4.948;2023-11-19T07:41:25;8.80;;;2.10;;
59872;SDS011;50750;51.636;4.948;2023-11-19T07:43:52;9.70;;;2.20;;
59872;SDS011;50750;51.636;4.948;2023-11-19T07:46:19;10.60;;;2.30;;
59872;SDS011;50750;51.636;4.948;2023-11-19T07:48:46;9.00;;;2.00;;
59872;SDS011;50750;51.636;4.948;2023-11-19T07:51:15;7.40;;;2.20;;
59872;SDS011;50750;51.636;4.948;2023-11-19T07:53:42;11.70;;;2.50;;
59872;SDS011;50750;51.636;4.948;2023-11-19T07:56:09;12.90;;;2.30;;
59872;SDS011;50750;51.636;4.948;2023-11-19T07:58:36;11.10;;;2.20;;
59872;SDS011;50750;51.636;4.948;2023-11-19T08:01:03;9.40;;;2.30;;
59872;SDS011;50750;51.636;4.948;2023-11-19T08:03:29;9.60;;;2.00;;
59872;SDS011;50750;51.636;4.948;2023-11-19T08:05:56;7.90;;;2.10;;
59872;SDS011;50750;51.636;4.948;2023-11-19T08:08:23;7.80;;;2.20;;
59872;SDS011;50750;51.636;4.948;2023-11-19T08:10:50;6.90;;;2.20;;
59872;SDS011;50750;51.636;4.948;2023-11-19T08:13:18;8.30;;;2.10;;
59872;SDS011;50750;51.636;4.948;2023-11-19T08:15:45;9.00;;;1.90;;
59872;SDS011;50750;51.636;4.948;2023-11-19T08:18:13;11.50;;;2.50;;
59872;SDS011;50750;51.636;4.948;2023-11-19T08:20:39;12.90;;;2.60;;
59872;SDS011;50750;51.636;4.948;2023-11-19T08:23:07;9.70;;;2.40;;
59872;SDS011;50750;51.636;4.948;2023-11-19T08:25:34;9.90;;;2.00;;
59872;SDS011;50750;51.636;4.948;2023-11-19T08:28:00;9.70;;;2.30;;
59872;SDS011;50750;51.636;4.948;2023-11-19T08:30:27;7.70;;;2.60;;
59872;SDS011;50750;51.636;4.948;2023-11-19T08:32:53;6.40;;;1.50;;
59872;SDS011;50750;51.636;4.948;2023-11-19T08:35:20;6.90;;;2.00;;
59872;SDS011;50750;51.636;4.948;2023-11-19T08:37:47;7.40;;;1.80;;
59872;SDS011;50750;51.636;4.948;2023-11-19T08:40:13;7.30;;;2.20;;
59872;SDS011;50750;51.636;4.948;2023-11-19T08:42:40;10.20;;;2.20;;
59872;SDS011;50750;51.636;4.948;2023-11-19T08:45:07;9.20;;;2.00;;
59872;SDS011;50750;51.636;4.948;2023-11-19T08:47:37;7.80;;;1.90;;
59872;SDS011;50750;51.636;4.948;2023-11-19T08:50:04;8.00;;;1.80;;
59872;SDS011;50750;51.636;4.948;2023-11-19T08:52:31;9.60;;;2.10;;
59872;SDS011;50750;51.636;4.948;2023-11-19T08:54:57;9.20;;;2.60;;
59872;SDS011;50750;51.636;4.948;2023-11-19T08:57:24;8.80;;;2.00;;
59872;SDS011;50750;51.636;4.948;2023-11-19T08:59:50;8.20;;;1.90;;
59872;SDS011;50750;51.636;4.948;2023-11-19T09:02:17;7.60;;;1.70;;
59872;SDS011;50750;51.636;4.948;2023-11-19T09:04:44;5.60;;;1.70;;
59872;SDS011;50750;51.636;4.948;2023-11-19T09:07:11;7.40;;;2.40;;
59872;SDS011;50750;51.636;4.948;2023-11-19T09:09:37;7.00;;;2.10;;
59872;SDS011;50750;51.636;4.948;2023-11-19T09:12:04;9.30;;;1.60;;
59872;SDS011;50750;51.636;4.948;2023-11-19T09:14:31;10.70;;;2.60;;
59872;SDS011;50750;51.636;4.948;2023-11-19T09:16:57;8.50;;;2.30;;
59872;SDS011;50750;51.636;4.948;2023-11-19T09:19:24;8.70;;;2.30;;
59872;SDS011;50750;51.636;4.948;2023-11-19T09:21:52;9.70;;;2.40;;
59872;SDS011;50750;51.636;4.948;2023-11-19T09:24:19;10.40;;;2.50;;
59872;SDS011;50750;51.636;4.948;2023-11-19T09:26:46;9.40;;;2.20;;
59872;SDS011;50750;51.636;4.948;2023-11-19T09:29:12;8.10;;;2.20;;
59872;SDS011;50750;51.636;4.948;2023-11-19T09:31:40;9.90;;;2.10;;
59872;SDS011;50750;51.636;4.948;2023-11-19T09:34:07;7.40;;;2.20;;
59872;SDS011;50750;51.636;4.948;2023-11-19T09:36:34;8.60;;;2.60;;
59872;SDS011;50750;51.636;4.948;2023-11-19T09:39:00;9.90;;;2.70;;
59872;SDS011;50750;51.636;4.948;2023-11-19T09:41:27;9.60;;;2.40;;
59872;SDS011;50750;51.636;4.948;2023-11-19T09:43:57;9.70;;;2.40;;
59872;SDS011;50750;51.636;4.948;2023-11-19T09:46:23;10.50;;;2.10;;
59872;SDS011;50750;51.636;4.948;2023-11-19T09:48:53;12.80;;;2.40;;
59872;SDS011;50750;51.636;4.948;2023-11-19T09:51:22;9.10;;;2.10;;
59872;SDS011;50750;51.636;4.948;2023-11-19T09:53:48;9.10;;;2.40;;
59872;SDS011;50750;51.636;4.948;2023-11-19T09:56:15;10.80;;;2.40;;
59872;SDS011;50750;51.636;4.948;2023-11-19T09:58:45;9.90;;;2.30;;
59872;SDS011;50750;51.636;4.948;2023-11-19T10:01:13;8.50;;;1.90;;
59872;SDS011;50750;51.636;4.948;2023-11-19T10:03:40;5.50;;;1.90;;
59872;SDS011;50750;51.636;4.948;2023-11-19T10:06:10;8.30;;;2.40;;
59872;SDS011;50750;51.636;4.948;2023-11-19T10:08:37;9.40;;;1.90;;
59872;SDS011;50750;51.636;4.948;2023-11-19T10:11:07;10.00;;;2.40;;
59872;SDS011;50750;51.636;4.948;2023-11-19T10:13:35;8.70;;;2.20;;
59872;SDS011;50750;51.636;4.948;2023-11-19T10:16:07;11.00;;;2.60;;
59872;SDS011;50750;51.636;4.948;2023-11-19T10:18:35;9.90;;;2.40;;
59872;SDS011;50750;51.636;4.948;2023-11-19T10:21:04;9.30;;;2.30;;
59872;SDS011;50750;51.636;4.948;2023-11-19T10:23:54;9.40;;;2.20;;
59872;SDS011;50750;51.636;4.948;2023-11-19T10:26:26;9.60;;;2.50;;
59872;SDS011;50750;51.636;4.948;2023-11-19T10:28:53;7.90;;;2.00;;
59872;SDS011;50750;51.636;4.948;2023-11-19T10:31:21;8.90;;;2.40;;
59872;SDS011;50750;51.636;4.948;2023-11-19T10:33:51;9.70;;;2.30;;
59872;SDS011;50750;51.636;4.948;2023-11-19T10:36:18;9.10;;;2.50;;
59872;SDS011;50750;51.636;4.948;2023-11-19T10:38:55;8.10;;;2.20;;
59872;SDS011;50750;51.636;4.948;2023-11-19T10:41:26;12.60;;;2.50;;
59872;SDS011;50750;51.636;4.948;2023-11-19T10:43:57;11.10;;;2.60;;
59872;SDS011;50750;51.636;4.948;2023-11-19T10:46:39;9.30;;;2.10;;
59872;SDS011;50750;51.636;4.948;2023-11-19T10:49:07;9.60;;;2.10;;
59872;SDS011;50750;51.636;4.948;2023-11-19T10:51:34;9.10;;;2.20;;
59872;SDS011;50750;51.636;4.948;2023-11-19T10:54:04;12.20;;;2.80;;
59872;SDS011;50750;51.636;4.948;2023-11-19T10:56:32;8.10;;;2.30;;
59872;SDS011;50750;51.636;4.948;2023-11-19T10:59:00;6.10;;;2.20;;
59872;SDS011;50750;51.636;4.948;2023-11-19T11:01:33;8.90;;;1.90;;
59872;SDS011;50750;51.636;4.948;2023-11-19T11:04:07;8.50;;;2.30;;
59872;SDS011;50750;51.636;4.948;2023-11-19T11:06:47;10.20;;;2.40;;
59872;SDS011;50750;51.636;4.948;2023-11-19T11:09:14;6.70;;;1.80;;
59872;SDS011;50750;51.636;4.948;2023-11-19T11:11:41;10.50;;;2.60;;
59872;SDS011;50750;51.636;4.948;2023-11-19T11:14:13;11.00;;;2.30;;
59872;SDS011;50750;51.636;4.948;2023-11-19T11:16:43;12.70;;;2.20;;
59872;SDS011;50750;51.636;4.948;2023-11-19T11:19:10;12.50;;;2.40;;
59872;SDS011;50750;51.636;4.948;2023-11-19T11:21:39;10.10;;;2.00;;
59872;SDS011;50750;51.636;4.948;2023-11-19T11:24:16;9.40;;;2.60;;
59872;SDS011;50750;51.636;4.948;2023-11-19T11:27:14;6.90;;;2.20;;
59872;SDS011;50750;51.636;4.948;2023-11-19T11:30:09;8.40;;;2.40;;
59872;SDS011;50750;51.636;4.948;2023-11-19T11:32:51;8.60;;;2.30;;
59872;SDS011;50750;51.636;4.948;2023-11-19T11:35:43;10.10;;;2.40;;
59872;SDS011;50750;51.636;4.948;2023-11-19T11:38:14;7.90;;;1.90;;
59872;SDS011;50750;51.636;4.948;2023-11-19T11:41:14;11.20;;;2.30;;
59872;SDS011;50750;51.636;4.948;2023-11-19T11:43:48;11.90;;;2.80;;
59872;SDS011;50750;51.636;4.948;2023-11-19T11:49:01;11.70;;;2.40;;
59872;SDS011;50750;51.636;4.948;2023-11-19T11:59:34;7.10;;;1.80;;
59872;SDS011;50750;51.636;4.948;2023-11-19T12:02:03;6.60;;;1.80;;
59872;SDS011;50750;51.636;4.948;2023-11-19T12:04:30;7.20;;;2.20;;
59872;SDS011;50750;51.636;4.948;2023-11-19T12:07:04;7.10;;;1.90;;
59872;SDS011;50750;51.636;4.948;2023-11-19T12:09:31;9.50;;;2.40;;
59872;SDS011;50750;51.636;4.948;2023-11-19T12:12:07;17.80;;;3.90;;
59872;SDS011;50750;51.636;4.948;2023-11-19T12:20:00;8.20;;;2.10;;
59872;SDS011;50750;51.636;4.948;2023-11-19T12:22:27;5.10;;;1.90;;
59872;SDS011;50750;51.636;4.948;2023-11-19T12:24:54;8.80;;;1.90;;
59872;SDS011;50750;51.636;4.948;2023-11-19T12:27:22;6.80;;;2.10;;
59872;SDS011;50750;51.636;4.948;2023-11-19T12:29:48;6.00;;;2.00;;
59872;SDS011;50750;51.636;4.948;2023-11-19T12:32:15;6.70;;;1.70;;
59872;SDS011;50750;51.636;4.948;2023-11-19T12:34:42;6.80;;;1.80;;
59872;SDS011;50750;51.636;4.948;2023-11-19T12:37:10;9.00;;;2.50;;
59872;SDS011;50750;51.636;4.948;2023-11-19T12:39:36;6.90;;;1.80;;
59872;SDS011;50750;51.636;4.948;2023-11-19T12:42:03;6.20;;;1.80;;
59872;SDS011;50750;51.636;4.948;2023-11-19T12:44:29;8.80;;;2.20;;
59872;SDS011;50750;51.636;4.948;2023-11-19T12:46:59;8.30;;;2.10;;
59872;SDS011;50750;51.636;4.948;2023-11-19T12:49:33;10.60;;;2.50;;
59872;SDS011;50750;51.636;4.948;2023-11-19T12:52:00;12.10;;;3.00;;
59872;SDS011;50750;51.636;4.948;2023-11-19T12:54:36;9.20;;;2.10;;
59872;SDS011;50750;51.636;4.948;2023-11-19T12:57:03;6.40;;;1.80;;
59872;SDS011;50750;51.636;4.948;2023-11-19T12:59:31;6.80;;;1.70;;
59872;SDS011;50750;51.636;4.948;2023-11-19T13:01:58;7.70;;;2.00;;
59872;SDS011;50750;51.636;4.948;2023-11-19T13:04:28;8.80;;;1.80;;
59872;SDS011;50750;51.636;4.948;2023-11-19T13:06:59;8.00;;;2.20;;
59872;SDS011;50750;51.636;4.948;2023-11-19T13:09:30;12.30;;;2.60;;
59872;SDS011;50750;51.636;4.948;2023-11-19T13:11:57;10.40;;;2.30;;
59872;SDS011;50750;51.636;4.948;2023-11-19T13:14:35;9.60;;;2.10;;
59872;SDS011;50750;51.636;4.948;2023-11-19T13:17:03;10.20;;;2.10;;
59872;SDS011;50750;51.636;4.948;2023-11-19T13:19:30;8.40;;;2.20;;
59872;SDS011;50750;51.636;4.948;2023-11-19T13:21:56;6.30;;;2.20;;
59872;SDS011;50750;51.636;4.948;2023-11-19T13:24:23;5.90;;;1.50;;
59872;SDS011;50750;51.636;4.948;2023-11-19T13:26:49;7.30;;;1.80;;
59872;SDS011;50750;51.636;4.948;2023-11-19T13:29:16;6.20;;;1.60;;
59872;SDS011;50750;51.636;4.948;2023-11-19T13:31:42;8.90;;;2.10;;
59872;SDS011;50750;51.636;4.948;2023-11-19T13:34:09;8.70;;;2.40;;
59872;SDS011;50750;51.636;4.948;2023-11-19T13:36:35;9.10;;;2.00;;
59872;SDS011;50750;51.636;4.948;2023-11-19T13:39:02;7.90;;;2.00;;
59872;SDS011;50750;51.636;4.948;2023-11-19T13:41:28;9.40;;;2.20;;
59872;SDS011;50750;51.636;4.948;2023-11-19T13:43:55;10.40;;;2.20;;
59872;SDS011;50750;51.636;4.948;2023-11-19T13:46:21;10.30;;;2.10;;
59872;SDS011;50750;51.636;4.948;2023-11-19T13:48:48;7.00;;;2.00;;
59872;SDS011;50750;51.636;4.948;2023-11-19T13:51:15;6.50;;;1.80;;
59872;SDS011;50750;51.636;4.948;2023-11-19T13:53:42;5.70;;;1.50;;
59872;SDS011;50750;51.636;4.948;2023-11-19T13:56:09;7.30;;;1.80;;
59872;SDS011;50750;51.636;4.948;2023-11-19T13:58:36;7.50;;;1.90;;
59872;SDS011;50750;51.636;4.948;2023-11-19T14:01:03;10.10;;;1.90;;
59872;SDS011;50750;51.636;4.948;2023-11-19T14:03:30;4.80;;;1.80;;
59872;SDS011;50750;51.636;4.948;2023-11-19T14:05:56;6.40;;;1.90;;
59872;SDS011;50750;51.636;4.948;2023-11-19T14:08:24;7.40;;;2.00;;
59872;SDS011;50750;51.636;4.948;2023-11-19T14:10:51;7.30;;;1.90;;
59872;SDS011;50750;51.636;4.948;2023-11-19T14:13:17;7.60;;;2.10;;
59872;SDS011;50750;51.636;4.948;2023-11-19T14:15:44;7.10;;;2.20;;
59872;SDS011;50750;51.636;4.948;2023-11-19T14:18:10;8.50;;;1.80;;
59872;SDS011;50750;51.636;4.948;2023-11-19T14:20:36;7.00;;;1.70;;
59872;SDS011;50750;51.636;4.948;2023-11-19T14:23:05;7.50;;;1.50;;
59872;SDS011;50750;51.636;4.948;2023-11-19T14:25:31;7.10;;;2.00;;
59872;SDS011;50750;51.636;4.948;2023-11-19T14:27:58;7.20;;;1.90;;
59872;SDS011;50750;51.636;4.948;2023-11-19T14:30:24;5.70;;;1.70;;
59872;SDS011;50750;51.636;4.948;2023-11-19T14:32:50;9.50;;;2.10;;
59872;SDS011;50750;51.636;4.948;2023-11-19T14:35:17;6.50;;;1.80;;
59872;SDS011;50750;51.636;4.948;2023-11-19T14:37:43;8.00;;;1.90;;
59872;SDS011;50750;51.636;4.948;2023-11-19T14:40:10;8.30;;;1.70;;
59872;SDS011;50750;51.636;4.948;2023-11-19T14:42:37;5.80;;;1.60;;
59872;SDS011;50750;51.636;4.948;2023-11-19T14:45:05;9.40;;;1.80;;
59872;SDS011;50750;51.636;4.948;2023-11-19T14:47:33;5.80;;;1.70;;
59872;SDS011;50750;51.636;4.948;2023-11-19T14:49:59;5.50;;;1.50;;
59872;SDS011;50750;51.636;4.948;2023-11-19T14:52:26;5.20;;;1.70;;
59872;SDS011;50750;51.636;4.948;2023-11-19T14:54:52;5.90;;;1.70;;
59872;SDS011;50750;51.636;4.948;2023-11-19T14:57:20;6.70;;;1.60;;
59872;SDS011;50750;51.636;4.948;2023-11-19T14:59:46;7.00;;;1.80;;
59872;SDS011;50750;51.636;4.948;2023-11-19T15:02:13;8.90;;;2.20;;
59872;SDS011;50750;51.636;4.948;2023-11-19T15:04:40;8.40;;;2.00;;
59872;SDS011;50750;51.636;4.948;2023-11-19T15:07:07;5.60;;;1.90;;